createdAt,value
2017-09-06T00:00:29.666Z,99.90
2017-09-06T00:02:57.728Z,99.90
2017-09-06T00:05:25.795Z,99.90
2017-09-06T00:07:53.852Z,99.90
2017-09-06T00:10:21.915Z,99.90
2017-09-06T00:12:49.985Z,99.90
2017-09-06T00:15:18.059Z,99.90
2017-09-06T00:17:46.135Z,99.90
2017-09-06T00:20:14.210Z,99.90
2017-09-06T00:22:42.288Z,99.90
2017-09-06T00:25:10.367Z,99.90
2017-09-06T00:27:38.439Z,99.90
2017-09-06T00:30:06.507Z,99.90
2017-09-06T00:32:34.590Z,99.90
2017-09-06T00:35:03.511Z,99.90
2017-09-06T00:37:32.355Z,99.90
2017-09-06T00:40:01.206Z,99.90
2017-09-06T00:42:29.283Z,99.90
2017-09-06T00:44:57.371Z,99.90
2017-09-06T00:47:25.438Z,99.90
2017-09-06T00:49:53.507Z,99.90
2017-09-06T00:52:21.579Z,99.90
2017-09-06T00:54:49.647Z,99.90
2017-09-06T00:57:17.738Z,99.90
2017-09-06T00:59:45.795Z,99.90
2017-09-06T01:02:13.851Z,99.90
2017-09-06T01:04:41.927Z,99.90
2017-09-06T01:07:09.999Z,99.90
2017-09-06T01:09:38.058Z,99.90
2017-09-06T01:12:06.141Z,99.90
2017-09-06T01:14:34.203Z,99.90
2017-09-06T01:17:02.275Z,99.90
2017-09-06T01:19:30.323Z,99.90
2017-09-06T01:21:58.391Z,99.30
2017-09-06T01:24:26.454Z,99.40
2017-09-06T01:26:54.515Z,98.10
2017-09-06T01:29:22.582Z,98.40
2017-09-06T01:31:50.665Z,99.00
2017-09-06T01:34:18.724Z,98.50
2017-09-06T01:36:46.814Z,98.50
2017-09-06T01:39:14.862Z,99.20
2017-09-06T01:41:42.925Z,98.50
2017-09-06T01:44:10.995Z,98.50
2017-09-06T01:46:39.056Z,98.30
2017-09-06T01:49:07.120Z,98.10
2017-09-06T01:51:35.183Z,98.20
2017-09-06T01:54:03.254Z,97.60
2017-09-06T01:56:31.326Z,97.10
2017-09-06T01:58:59.378Z,97.30
2017-09-06T02:01:27.438Z,96.60
2017-09-06T02:03:55.502Z,97.50
2017-09-06T02:06:23.561Z,97.70
2017-09-06T02:08:51.638Z,97.60
2017-09-06T02:11:19.711Z,97.60
2017-09-06T02:13:47.816Z,97.60
2017-09-06T02:16:16.641Z,97.50
2017-09-06T02:18:44.710Z,97.50
2017-09-06T02:21:12.767Z,97.30
2017-09-06T02:23:40.822Z,97.40
2017-09-06T02:26:08.895Z,98.10
2017-09-06T02:28:36.947Z,98.40
2017-09-06T02:31:05.787Z,97.70
2017-09-06T02:33:33.848Z,97.70
2017-09-06T02:36:01.912Z,98.50
2017-09-06T02:38:29.969Z,98.70
2017-09-06T02:40:58.099Z,98.80
2017-09-06T02:43:26.132Z,98.70
2017-09-06T02:45:54.194Z,98.00
2017-09-06T02:48:22.251Z,98.00
2017-09-06T02:50:50.310Z,98.40
2017-09-06T02:53:19.172Z,97.80
2017-09-06T02:55:47.219Z,97.80
2017-09-06T02:58:15.271Z,98.20
2017-09-06T03:00:43.339Z,98.20
2017-09-06T03:03:11.394Z,98.40
2017-09-06T03:05:39.479Z,98.40
2017-09-06T03:08:07.522Z,98.60
2017-09-06T03:10:35.589Z,98.50
2017-09-06T03:13:03.652Z,98.40
2017-09-06T03:15:31.713Z,98.50
2017-09-06T03:17:59.809Z,98.30
2017-09-06T03:20:27.867Z,97.90
2017-09-06T03:22:55.939Z,97.60
2017-09-06T03:25:23.999Z,97.80
2017-09-06T03:27:52.070Z,97.70
2017-09-06T03:30:20.121Z,97.60
2017-09-06T03:32:48.175Z,97.90
2017-09-06T03:35:16.231Z,98.20
2017-09-06T03:37:44.299Z,98.10
2017-09-06T03:40:12.376Z,98.10
2017-09-06T03:42:40.451Z,97.80
2017-09-06T03:45:08.495Z,98.60
2017-09-06T03:47:36.563Z,99.00
2017-09-06T03:50:04.634Z,99.10
2017-09-06T03:52:32.708Z,99.00
2017-09-06T03:55:00.764Z,98.90
2017-09-06T03:57:28.832Z,98.70
2017-09-06T03:59:56.894Z,98.70
2017-09-06T04:02:25.064Z,98.30
2017-09-06T04:04:53.097Z,98.10
2017-09-06T04:07:21.176Z,97.70
2017-09-06T04:09:49.247Z,97.50
2017-09-06T04:12:17.307Z,97.00
2017-09-06T04:14:45.371Z,97.10
2017-09-06T04:17:13.442Z,97.20
2017-09-06T04:19:41.515Z,97.20
2017-09-06T04:22:09.572Z,97.90
2017-09-06T04:24:37.643Z,97.80
2017-09-06T04:27:05.857Z,98.30
2017-09-06T04:29:33.931Z,98.00
2017-09-06T04:32:01.990Z,97.70
2017-09-06T04:34:30.043Z,97.80
2017-09-06T04:36:58.142Z,98.00
2017-09-06T04:39:26.978Z,98.20
2017-09-06T04:41:55.508Z,98.20
2017-09-06T04:44:24.331Z,97.80
2017-09-06T04:46:52.401Z,97.80
2017-09-06T04:49:20.471Z,98.20
2017-09-06T04:51:49.278Z,99.20
2017-09-06T04:54:17.363Z,99.20
2017-09-06T04:56:45.430Z,99.30
2017-09-06T04:59:13.495Z,99.90
2017-09-06T05:01:41.567Z,99.90
2017-09-06T05:04:09.630Z,99.90
2017-09-06T05:06:37.678Z,99.90
2017-09-06T05:09:05.748Z,99.90
2017-09-06T05:11:33.805Z,99.90
2017-09-06T05:14:01.883Z,99.90
2017-09-06T05:16:29.936Z,99.60
2017-09-06T05:18:57.998Z,99.90
2017-09-06T05:21:26.079Z,99.90
2017-09-06T05:23:54.140Z,99.70
2017-09-06T05:26:22.199Z,99.40
2017-09-06T05:28:50.259Z,99.50
2017-09-06T05:31:18.328Z,99.90
2017-09-06T05:33:46.390Z,99.90
2017-09-06T05:36:14.470Z,99.90
2017-09-06T05:38:42.517Z,99.90
2017-09-06T05:41:10.636Z,99.90
2017-09-06T05:43:38.679Z,99.90
2017-09-06T05:46:06.763Z,99.90
2017-09-06T05:48:34.831Z,99.90
2017-09-06T05:51:02.909Z,99.90
2017-09-06T05:53:30.953Z,99.90
2017-09-06T05:55:59.021Z,99.90
2017-09-06T05:58:27.083Z,99.90
2017-09-06T06:00:55.155Z,99.90
2017-09-06T06:03:23.231Z,99.90
2017-09-06T06:05:51.307Z,99.90
2017-09-06T06:08:19.370Z,99.90
2017-09-06T06:10:47.455Z,99.90
2017-09-06T06:13:15.512Z,99.90
2017-09-06T06:15:43.591Z,99.90
2017-09-06T06:18:11.658Z,99.90
2017-09-06T06:20:39.730Z,99.90
2017-09-06T06:23:07.792Z,99.90
2017-09-06T06:25:35.964Z,99.90
2017-09-06T06:28:03.995Z,99.90
2017-09-06T06:30:32.051Z,99.90
2017-09-06T06:33:00.128Z,99.90
2017-09-06T06:35:28.194Z,99.90
2017-09-06T06:37:56.247Z,99.90
2017-09-06T06:40:24.315Z,99.90
2017-09-06T06:42:52.374Z,99.90
2017-09-06T06:45:20.442Z,99.90
2017-09-06T06:47:48.550Z,99.90
2017-09-06T06:50:16.621Z,99.90
2017-09-06T06:52:44.673Z,99.90
2017-09-06T06:55:12.748Z,99.90
2017-09-06T06:57:40.815Z,99.90
2017-09-06T07:00:08.871Z,99.90
2017-09-06T07:02:36.965Z,99.90
2017-09-06T07:05:05.794Z,99.90
2017-09-06T07:07:34.636Z,99.90
2017-09-06T07:10:02.711Z,99.90
2017-09-06T07:12:30.780Z,99.90
2017-09-06T07:14:58.885Z,99.90
2017-09-06T07:17:26.943Z,99.90
2017-09-06T07:19:55.039Z,99.90
2017-09-06T07:22:23.879Z,99.90
2017-09-06T07:24:51.963Z,99.90
2017-09-06T07:27:20.042Z,99.90
2017-09-06T07:29:48.127Z,99.90
2017-09-06T07:32:16.204Z,99.90
2017-09-06T07:34:44.267Z,99.90
2017-09-06T07:37:12.347Z,99.90
2017-09-06T07:39:40.402Z,99.90
2017-09-06T07:42:08.486Z,99.90
2017-09-06T07:44:36.560Z,99.90
2017-09-06T07:47:04.623Z,99.90
2017-09-06T07:49:32.691Z,99.90
2017-09-06T07:52:00.766Z,99.90
2017-09-06T07:54:28.851Z,99.90
2017-09-06T07:56:56.910Z,99.90
2017-09-06T07:59:24.984Z,99.90
2017-09-06T08:01:53.027Z,99.90
2017-09-06T08:04:21.127Z,99.90
2017-09-06T08:06:54.955Z,99.90
2017-09-06T08:09:23.308Z,99.90
2017-09-06T08:11:51.348Z,99.90
2017-09-06T08:14:19.399Z,99.90
2017-09-06T08:16:47.479Z,99.90
2017-09-06T08:19:15.555Z,99.90
2017-09-06T08:21:43.626Z,99.90
2017-09-06T08:24:11.690Z,99.90
2017-09-06T08:26:39.776Z,99.90
2017-09-06T08:29:07.823Z,99.90
2017-09-06T08:31:35.907Z,99.90
2017-09-06T08:34:03.975Z,99.90
2017-09-06T08:36:32.041Z,99.90
2017-09-06T08:39:00.122Z,99.90
2017-09-06T08:41:28.180Z,99.90
2017-09-06T08:43:56.250Z,99.90
2017-09-06T08:46:24.315Z,99.90
2017-09-06T08:48:52.386Z,99.90
2017-09-06T08:51:20.467Z,99.90
2017-09-06T08:53:48.557Z,99.90
2017-09-06T08:56:16.607Z,99.90
2017-09-06T08:58:44.666Z,99.90
2017-09-06T09:01:12.897Z,99.90
2017-09-06T09:03:40.939Z,99.90
2017-09-06T09:06:08.992Z,99.90
2017-09-06T09:08:37.078Z,99.90
2017-09-06T09:11:05.127Z,99.90
2017-09-06T09:13:33.212Z,99.90
2017-09-06T09:16:01.307Z,99.90
2017-09-06T09:18:29.380Z,99.90
2017-09-06T09:20:57.449Z,99.90
2017-09-06T09:23:25.548Z,99.90
2017-09-06T09:25:53.600Z,99.90
2017-09-06T09:28:21.655Z,99.90
2017-09-06T09:30:49.718Z,99.90
2017-09-06T09:33:17.766Z,99.90
2017-09-06T09:35:45.875Z,99.90
2017-09-06T09:38:13.969Z,99.90
2017-09-06T09:40:42.053Z,99.90
2017-09-06T09:43:10.110Z,99.90
2017-09-06T09:45:38.185Z,99.90
2017-09-06T09:48:08.188Z,99.90
2017-09-06T09:50:36.359Z,99.90
2017-09-06T09:53:04.455Z,99.90
2017-09-06T09:55:32.527Z,99.90
2017-09-06T09:58:01.210Z,99.90
2017-09-06T10:00:29.271Z,99.90
2017-09-06T10:02:57.344Z,99.90
2017-09-06T10:05:25.424Z,99.90
2017-09-06T10:07:53.503Z,99.90
2017-09-06T10:10:21.574Z,99.90
2017-09-06T10:12:49.652Z,99.90
2017-09-06T10:15:17.718Z,99.90
2017-09-06T10:17:45.798Z,99.90
2017-09-06T10:20:13.886Z,99.90
2017-09-06T10:22:41.960Z,99.90
2017-09-06T10:25:10.014Z,99.90
2017-09-06T10:27:38.087Z,99.90
2017-09-06T10:30:06.162Z,99.90
2017-09-06T10:32:34.228Z,99.90
2017-09-06T10:35:02.291Z,99.90
2017-09-06T10:37:30.423Z,99.90
2017-09-06T10:39:58.493Z,99.90
2017-09-06T10:42:27.306Z,98.10
2017-09-06T10:44:55.383Z,98.00
2017-09-06T10:47:23.483Z,97.50
2017-09-06T10:49:51.558Z,96.40
2017-09-06T10:52:19.623Z,96.60
2017-09-06T10:54:48.072Z,95.40
2017-09-06T10:57:16.228Z,95.10
2017-09-06T10:59:44.299Z,93.40
2017-09-06T11:02:12.366Z,91.80
2017-09-06T11:04:40.451Z,88.30
2017-09-06T11:07:08.511Z,85.60
2017-09-06T11:09:36.591Z,76.00
2017-09-06T11:12:04.655Z,67.10
2017-09-06T11:14:32.723Z,61.80
2017-09-06T11:17:00.887Z,63.30
2017-09-06T11:19:28.970Z,60.90
2017-09-06T11:21:57.055Z,57.10
2017-09-06T11:24:25.120Z,55.80
2017-09-06T11:26:53.226Z,54.20
2017-09-06T11:29:21.273Z,56.90
2017-09-06T11:31:49.376Z,59.10
2017-09-06T11:34:17.956Z,60.10
2017-09-06T11:36:46.083Z,61.00
2017-09-06T11:39:14.156Z,63.50
2017-09-06T11:41:42.210Z,59.90
2017-09-06T11:44:10.273Z,55.80
2017-09-06T11:46:38.356Z,49.30
2017-09-06T11:49:06.452Z,45.30
2017-09-06T11:51:34.525Z,41.90
2017-09-06T11:54:02.578Z,41.10
2017-09-06T11:56:30.652Z,40.40
2017-09-06T11:58:58.718Z,44.80
2017-09-06T12:01:26.799Z,49.50
2017-09-06T12:03:54.921Z,53.70
2017-09-06T12:06:24.011Z,58.70
2017-09-06T12:08:52.079Z,58.70
2017-09-06T12:11:20.162Z,61.60
2017-09-06T12:13:48.231Z,61.60
2017-09-06T12:16:16.316Z,59.50
2017-09-06T12:18:44.407Z,61.80
2017-09-06T12:21:12.463Z,60.10
2017-09-06T12:23:40.567Z,60.40
2017-09-06T12:26:08.615Z,61.90
2017-09-06T12:28:36.696Z,63.80
2017-09-06T12:31:04.762Z,66.50
2017-09-06T12:33:32.823Z,62.70
2017-09-06T12:36:00.887Z,63.20
2017-09-06T12:38:28.987Z,61.60
2017-09-06T12:40:57.782Z,59.40
2017-09-06T12:43:25.839Z,60.90
2017-09-06T12:45:53.935Z,59.40
2017-09-06T12:48:22.040Z,60.70
2017-09-06T12:50:50.106Z,60.80
2017-09-06T12:53:18.178Z,60.30
2017-09-06T12:55:46.262Z,61.40
2017-09-06T12:58:14.331Z,61.70
2017-09-06T13:00:42.395Z,62.10
2017-09-06T13:03:10.472Z,61.30
2017-09-06T13:05:38.540Z,61.10
2017-09-06T13:08:06.604Z,61.50
2017-09-06T13:10:34.669Z,63.30
2017-09-06T13:13:02.735Z,63.50
2017-09-06T13:15:30.824Z,62.40
2017-09-06T13:17:58.866Z,62.80
2017-09-06T13:20:26.924Z,62.40
2017-09-06T13:22:55.008Z,60.20
2017-09-06T13:25:23.099Z,60.60
2017-09-06T13:27:51.931Z,59.40
2017-09-06T13:30:20.003Z,60.00
2017-09-06T13:32:48.067Z,56.50
2017-09-06T13:35:16.887Z,58.40
2017-09-06T13:37:44.955Z,58.40
2017-09-06T13:40:13.032Z,57.60
2017-09-06T13:42:41.176Z,59.20
2017-09-06T13:45:10.008Z,58.60
2017-09-06T13:47:38.098Z,58.50
2017-09-06T13:50:06.166Z,59.00
2017-09-06T13:52:34.232Z,59.00
2017-09-06T13:55:03.060Z,57.60
2017-09-06T13:57:31.120Z,57.60
2017-09-06T13:59:59.180Z,57.20
2017-09-06T14:02:27.254Z,58.20
2017-09-06T14:04:55.307Z,58.20
2017-09-06T14:07:23.393Z,56.90
2017-09-06T14:09:51.464Z,57.10
2017-09-06T14:12:19.535Z,57.60
2017-09-06T14:14:47.598Z,57.70
2017-09-06T14:17:15.778Z,57.00
2017-09-06T14:19:43.851Z,56.20
2017-09-06T14:22:11.924Z,56.10
2017-09-06T14:24:39.972Z,54.30
2017-09-06T14:27:08.054Z,52.70
2017-09-06T14:29:36.144Z,53.90
2017-09-06T14:32:04.206Z,55.00
2017-09-06T14:34:32.255Z,55.10
2017-09-06T14:37:00.507Z,55.40
2017-09-06T14:39:28.583Z,55.80
2017-09-06T14:41:56.661Z,56.70
2017-09-06T14:44:24.732Z,56.60
2017-09-06T14:46:52.868Z,57.50
2017-09-06T14:49:20.925Z,57.20
2017-09-06T14:51:49.031Z,58.40
2017-09-06T14:54:17.117Z,58.30
2017-09-06T14:56:45.991Z,58.90
2017-09-06T14:59:14.044Z,58.80
2017-09-06T15:01:42.130Z,58.80
2017-09-06T15:04:10.174Z,58.80
2017-09-06T15:06:38.243Z,59.50
2017-09-06T15:09:06.314Z,59.50
2017-09-06T15:11:34.374Z,59.90
2017-09-06T15:14:02.457Z,60.20
2017-09-06T15:16:30.495Z,60.20
2017-09-06T15:18:58.567Z,60.30
2017-09-06T15:21:26.640Z,61.20
2017-09-06T15:23:54.703Z,61.10
2017-09-06T15:26:22.779Z,60.70
2017-09-06T15:28:50.872Z,59.10
2017-09-06T15:31:18.944Z,60.70
2017-09-06T15:33:47.007Z,60.50
2017-09-06T15:36:15.071Z,58.90
2017-09-06T15:38:43.936Z,57.60
2017-09-06T15:41:12.005Z,57.50
2017-09-06T15:43:40.058Z,58.00
2017-09-06T15:46:08.145Z,58.40
2017-09-06T15:48:37.606Z,58.40
2017-09-06T15:51:05.659Z,58.20
2017-09-06T15:53:33.720Z,57.20
2017-09-06T15:56:01.809Z,56.70
2017-09-06T15:58:29.856Z,57.10
2017-09-06T16:00:57.975Z,57.30
2017-09-06T16:03:26.096Z,59.00
2017-09-06T16:05:54.164Z,59.50
2017-09-06T16:08:22.246Z,59.60
2017-09-06T16:10:50.330Z,59.30
2017-09-06T16:13:18.425Z,58.40
2017-09-06T16:15:46.506Z,58.80
2017-09-06T16:18:14.570Z,58.90
2017-09-06T16:20:43.276Z,59.30
2017-09-06T16:23:11.366Z,59.60
2017-09-06T16:25:39.500Z,59.00
2017-09-06T16:28:08.954Z,58.90
2017-09-06T16:30:37.027Z,58.80
2017-09-06T16:33:05.139Z,59.20
2017-09-06T16:35:34.108Z,57.50
2017-09-06T16:38:02.207Z,57.40
2017-09-06T16:40:30.255Z,57.00
2017-09-06T16:42:58.351Z,57.30
2017-09-06T16:45:26.430Z,58.30
2017-09-06T16:47:54.521Z,58.90
2017-09-06T16:50:22.615Z,58.80
2017-09-06T16:52:51.775Z,59.40
2017-09-06T16:55:19.868Z,57.90
2017-09-06T16:57:48.716Z,59.10
2017-09-06T17:00:16.786Z,59.00
2017-09-06T17:02:44.855Z,58.80
2017-09-06T17:05:12.934Z,62.10
2017-09-06T17:07:41.030Z,64.30
2017-09-06T17:10:09.202Z,67.50
2017-09-06T17:12:37.270Z,69.60
2017-09-06T17:15:05.368Z,73.90
2017-09-06T17:17:33.468Z,78.10
2017-09-06T17:20:01.566Z,81.90
2017-09-06T17:22:29.627Z,86.30
2017-09-06T17:24:57.732Z,90.80
2017-09-06T17:27:26.298Z,91.60
2017-09-06T17:29:55.206Z,92.70
2017-09-06T17:32:23.331Z,92.70
2017-09-06T17:34:51.412Z,93.60
2017-09-06T17:37:19.483Z,93.70
2017-09-06T17:39:47.564Z,94.00
2017-09-06T17:42:15.738Z,93.80
2017-09-06T17:44:43.834Z,94.40
2017-09-06T17:47:11.901Z,94.30
2017-09-06T17:49:39.964Z,94.70
2017-09-06T17:52:08.041Z,94.80
2017-09-06T17:54:36.131Z,94.60
2017-09-06T17:57:07.658Z,95.00
2017-09-06T17:59:37.875Z,94.30
2017-09-06T18:02:06.934Z,94.90
2017-09-06T18:04:35.819Z,95.10
2017-09-06T18:07:03.882Z,95.40
2017-09-06T18:09:31.989Z,95.40
2017-09-06T18:12:00.028Z,95.40
2017-09-06T18:14:28.108Z,94.70
2017-09-06T18:16:56.178Z,95.30
2017-09-06T18:19:24.254Z,96.10
2017-09-06T18:21:52.357Z,95.10
2017-09-06T18:24:20.426Z,95.30
2017-09-06T18:26:49.258Z,94.80
2017-09-06T18:29:17.351Z,94.80
2017-09-06T18:31:45.430Z,94.50
2017-09-06T18:34:13.503Z,94.80
2017-09-06T18:36:41.584Z,94.20
2017-09-06T18:39:10.416Z,94.80
2017-09-06T18:41:38.496Z,94.80
2017-09-06T18:44:06.564Z,93.70
2017-09-06T18:46:34.891Z,93.70
2017-09-06T18:49:03.765Z,94.00
2017-09-06T18:51:33.816Z,93.00
2017-09-06T18:54:01.891Z,92.90
2017-09-06T18:56:29.984Z,92.20
2017-09-06T18:58:58.094Z,92.10
2017-09-06T19:01:26.572Z,92.30
2017-09-06T19:03:54.708Z,91.70
2017-09-06T19:06:22.838Z,92.40
2017-09-06T19:08:51.688Z,91.90
2017-09-06T19:11:20.511Z,92.10
2017-09-06T19:13:49.344Z,91.60
2017-09-06T19:16:17.434Z,91.50
2017-09-06T19:18:46.274Z,91.00
2017-09-06T19:21:14.378Z,90.90
2017-09-06T19:23:43.216Z,91.50
2017-09-06T19:26:11.279Z,90.90
2017-09-06T19:28:39.336Z,91.40
2017-09-06T19:31:07.420Z,92.20
2017-09-06T19:33:36.318Z,92.00
2017-09-06T19:36:04.528Z,92.00
2017-09-06T19:38:32.611Z,90.80
2017-09-06T19:41:00.702Z,91.60
2017-09-06T19:43:28.780Z,92.10
2017-09-06T19:45:56.848Z,93.00
2017-09-06T19:48:25.520Z,92.60
2017-09-06T19:50:53.621Z,92.60
2017-09-06T19:53:21.668Z,92.70
2017-09-06T19:55:50.539Z,92.40
2017-09-06T19:58:18.615Z,92.40
2017-09-06T20:00:46.679Z,91.90
2017-09-06T20:03:14.756Z,92.90
2017-09-06T20:05:42.837Z,93.70
2017-09-06T20:08:10.927Z,94.40
2017-09-06T20:10:39.778Z,96.60
2017-09-06T20:13:07.850Z,96.60
2017-09-06T20:15:35.923Z,97.30
2017-09-06T20:18:03.988Z,98.00
2017-09-06T20:20:32.064Z,98.10
2017-09-06T20:23:00.157Z,98.10
2017-09-06T20:25:28.223Z,98.30
2017-09-06T20:27:57.095Z,98.40
2017-09-06T20:30:25.980Z,98.40
2017-09-06T20:32:54.043Z,98.80
2017-09-06T20:35:22.149Z,98.20
2017-09-06T20:37:50.221Z,98.90
2017-09-06T20:40:18.291Z,98.20
2017-09-06T20:42:46.379Z,98.30
2017-09-06T20:45:15.213Z,97.90
2017-09-06T20:47:43.270Z,97.50
2017-09-06T20:50:11.340Z,97.10
2017-09-06T20:52:40.171Z,97.30
2017-09-06T20:55:08.279Z,97.30
2017-09-06T20:57:36.356Z,96.80
2017-09-06T21:00:04.400Z,96.80
2017-09-06T21:02:32.478Z,97.40
2017-09-06T21:05:00.572Z,96.80
2017-09-06T21:07:28.632Z,96.30
2017-09-06T21:09:56.692Z,96.60
2017-09-06T21:12:24.778Z,97.00
2017-09-06T21:14:52.837Z,96.60
2017-09-06T21:17:20.916Z,96.50
2017-09-06T21:19:48.970Z,96.00
2017-09-06T21:22:17.058Z,95.30
2017-09-06T21:24:45.126Z,94.60
2017-09-06T21:27:13.194Z,94.20
2017-09-06T21:29:41.323Z,94.10
2017-09-06T21:32:10.137Z,94.10
2017-09-06T21:34:38.220Z,94.10
2017-09-06T21:37:06.299Z,93.00
2017-09-06T21:39:34.375Z,93.60
2017-09-06T21:42:02.445Z,94.20
2017-09-06T21:44:30.491Z,94.50
2017-09-06T21:46:58.584Z,93.50
2017-09-06T21:49:26.677Z,93.80
2017-09-06T21:51:54.726Z,94.30
2017-09-06T21:54:22.806Z,93.50
2017-09-06T21:56:50.871Z,93.30
2017-09-06T21:59:18.940Z,93.00
2017-09-06T22:01:46.994Z,93.10
2017-09-06T22:04:15.063Z,92.90
2017-09-06T22:06:43.153Z,93.30
2017-09-06T22:09:11.230Z,92.40
2017-09-06T22:11:39.291Z,92.40
2017-09-06T22:14:07.371Z,92.90
2017-09-06T22:16:35.453Z,93.30
2017-09-06T22:19:03.511Z,93.70
2017-09-06T22:21:31.574Z,93.70
2017-09-06T22:23:59.648Z,94.00
2017-09-06T22:26:27.735Z,94.70
2017-09-06T22:28:55.780Z,94.70
2017-09-06T22:31:23.860Z,94.60
2017-09-06T22:33:51.932Z,94.70
2017-09-06T22:36:19.982Z,94.10
2017-09-06T22:38:48.068Z,94.00
2017-09-06T22:41:21.032Z,94.20
2017-09-06T22:43:49.121Z,94.20
2017-09-06T22:46:17.174Z,94.00
2017-09-06T22:48:45.251Z,94.40
2017-09-06T22:51:13.319Z,94.00
2017-09-06T22:53:41.374Z,93.40
2017-09-06T22:56:09.438Z,94.00
2017-09-06T22:58:38.343Z,93.10
2017-09-06T23:01:06.374Z,93.20
2017-09-06T23:03:34.436Z,93.10
2017-09-06T23:06:02.517Z,92.70
2017-09-06T23:08:30.567Z,93.80
2017-09-06T23:10:58.651Z,94.10
2017-09-06T23:13:26.715Z,93.90
2017-09-06T23:15:54.841Z,93.20
2017-09-06T23:18:22.887Z,93.40
2017-09-06T23:20:50.949Z,93.30
2017-09-06T23:23:19.015Z,93.10
2017-09-06T23:25:47.072Z,93.00
2017-09-06T23:28:15.143Z,92.70
2017-09-06T23:30:43.215Z,93.10
2017-09-06T23:33:11.307Z,92.90
2017-09-06T23:35:39.375Z,92.80
2017-09-06T23:38:07.428Z,92.80
2017-09-06T23:40:35.499Z,93.30
2017-09-06T23:43:03.546Z,93.20
2017-09-06T23:45:31.620Z,92.50
2017-09-06T23:47:59.693Z,93.20
2017-09-06T23:50:27.791Z,93.60
2017-09-06T23:52:55.843Z,93.20
2017-09-06T23:55:23.901Z,93.10
2017-09-06T23:57:52.739Z,93.40
